sensor_id;sensor_type;location;lat;lon;timestamp;pressure;altitude;pressure_sealevel;temperature;humidity
42633;BME280;28261;53.304;-6.284;2023-11-18T00:01:41;100068.53;;;10.29;100.00
42633;BME280;28261;53.304;-6.284;2023-11-18T00:03:47;100058.66;;;10.31;100.00
42633;BME280;28261;53.304;-6.284;2023-11-18T00:05:51;100065.88;;;10.29;100.00
42633;BME280;28261;53.304;-6.284;2023-11-18T00:07:55;100077.34;;;10.29;100.00
42633;BME280;28261;53.304;-6.284;2023-11-18T00:09:59;100065.88;;;10.29;100.00
42633;BME280;28261;53.304;-6.284;2023-11-18T00:12:03;100065.53;;;10.33;100.00
42633;BME280;28261;53.304;-6.284;2023-11-18T00:14:07;100058.22;;;10.37;100.00
42633;BME280;28261;53.304;-6.284;2023-11-18T00:16:12;100044.63;;;10.42;100.00
42633;BME280;28261;53.304;-6.284;2023-11-18T00:18:18;100034.75;;;10.44;100.00
42633;BME280;28261;53.304;-6.284;2023-11-18T00:20:23;100031.13;;;10.45;100.00
42633;BME280;28261;53.304;-6.284;2023-11-18T00:22:27;100016.06;;;10.45;100.00
42633;BME280;28261;53.304;-6.284;2023-11-18T00:24:30;100013.66;;;10.54;100.00
42633;BME280;28261;53.304;-6.284;2023-11-18T00:26:36;100012.13;;;10.62;100.00
42633;BME280;28261;53.304;-6.284;2023-11-18T00:28:41;100007.19;;;10.69;100.00
42633;BME280;28261;53.304;-6.284;2023-11-18T00:30:45;99991.97;;;10.71;100.00
42633;BME280;28261;53.304;-6.284;2023-11-18T00:32:48;100002.81;;;10.68;100.00
42633;BME280;28261;53.304;-6.284;2023-11-18T00:34:51;99989.81;;;10.65;100.00
42633;BME280;28261;53.304;-6.284;2023-11-18T00:36:57;99988.38;;;10.61;100.00
42633;BME280;28261;53.304;-6.284;2023-11-18T00:39:02;99986.94;;;10.57;100.00
42633;BME280;28261;53.304;-6.284;2023-11-18T00:41:07;99989.81;;;10.54;100.00
42633;BME280;28261;53.304;-6.284;2023-11-18T00:43:11;99998.13;;;10.49;100.00
42633;BME280;28261;53.304;-6.284;2023-11-18T00:45:15;99973.66;;;10.45;100.00
42633;BME280;28261;53.304;-6.284;2023-11-18T00:47:20;99963.31;;;10.42;100.00
42633;BME280;28261;53.304;-6.284;2023-11-18T00:49:25;99964.41;;;10.40;100.00
42633;BME280;28261;53.304;-6.284;2023-11-18T00:51:29;99967.19;;;10.38;100.00
42633;BME280;28261;53.304;-6.284;2023-11-18T00:53:34;99963.81;;;10.36;100.00
42633;BME280;28261;53.304;-6.284;2023-11-18T00:55:38;99961.16;;;10.36;100.00
42633;BME280;28261;53.304;-6.284;2023-11-18T00:57:43;99951.53;;;10.35;100.00
42633;BME280;28261;53.304;-6.284;2023-11-18T00:59:46;99942.63;;;10.36;100.00
42633;BME280;28261;53.304;-6.284;2023-11-18T01:01:51;99936.13;;;10.40;100.00
42633;BME280;28261;53.304;-6.284;2023-11-18T01:03:55;99931.53;;;10.42;100.00
42633;BME280;28261;53.304;-6.284;2023-11-18T01:06:01;99935.00;;;10.43;100.00
42633;BME280;28261;53.304;-6.284;2023-11-18T01:08:04;99920.69;;;10.45;100.00
42633;BME280;28261;53.304;-6.284;2023-11-18T01:10:11;99911.06;;;10.44;100.00
42633;BME280;28261;53.304;-6.284;2023-11-18T01:12:14;99913.47;;;10.47;100.00
42633;BME280;28261;53.304;-6.284;2023-11-18T01:14:18;99906.09;;;10.51;100.00
42633;BME280;28261;53.304;-6.284;2023-11-18T01:16:21;99913.09;;;10.52;100.00
42633;BME280;28261;53.304;-6.284;2023-11-18T01:18:27;99915.72;;;10.52;100.00
42633;BME280;28261;53.304;-6.284;2023-11-18T01:20:31;99904.31;;;10.52;100.00
42633;BME280;28261;53.304;-6.284;2023-11-18T01:22:35;99904.56;;;10.48;100.00
42633;BME280;28261;53.304;-6.284;2023-11-18T01:24:39;99891.41;;;10.47;100.00
42633;BME280;28261;53.304;-6.284;2023-11-18T01:26:45;99893.69;;;10.52;100.00
42633;BME280;28261;53.304;-6.284;2023-11-18T01:28:49;99896.09;;;10.55;100.00
42633;BME280;28261;53.304;-6.284;2023-11-18T01:30:53;99881.88;;;10.56;100.00
42633;BME280;28261;53.304;-6.284;2023-11-18T01:32:56;99880.19;;;10.55;100.00
42633;BME280;28261;53.304;-6.284;2023-11-18T01:35:04;99875.84;;;10.54;100.00
42633;BME280;28261;53.304;-6.284;2023-11-18T01:37:07;99875.63;;;10.57;100.00
42633;BME280;28261;53.304;-6.284;2023-11-18T01:39:11;99875.50;;;10.58;100.00
42633;BME280;28261;53.304;-6.284;2023-11-18T01:41:15;99868.97;;;10.62;100.00
42633;BME280;28261;53.304;-6.284;2023-11-18T01:43:21;99871.25;;;10.67;100.00
42633;BME280;28261;53.304;-6.284;2023-11-18T01:45:25;99870.78;;;10.73;100.00
42633;BME280;28261;53.304;-6.284;2023-11-18T01:47:31;99862.56;;;10.76;100.00
42633;BME280;28261;53.304;-6.284;2023-11-18T01:49:37;99852.44;;;10.81;100.00
42633;BME280;28261;53.304;-6.284;2023-11-18T01:51:45;99865.91;;;10.90;100.00
42633;BME280;28261;53.304;-6.284;2023-11-18T01:53:50;99867.31;;;10.94;100.00
42633;BME280;28261;53.304;-6.284;2023-11-18T01:55:54;99864.28;;;10.98;100.00
42633;BME280;28261;53.304;-6.284;2023-11-18T01:57:59;99863.06;;;11.03;100.00
42633;BME280;28261;53.304;-6.284;2023-11-18T02:00:08;99869.91;;;11.05;100.00
42633;BME280;28261;53.304;-6.284;2023-11-18T02:02:17;99863.53;;;11.08;100.00
42633;BME280;28261;53.304;-6.284;2023-11-18T02:04:23;99857.81;;;11.12;100.00
42633;BME280;28261;53.304;-6.284;2023-11-18T02:06:28;99859.25;;;11.16;100.00
42633;BME280;28261;53.304;-6.284;2023-11-18T02:08:31;99863.47;;;11.19;100.00
42633;BME280;28261;53.304;-6.284;2023-11-18T02:10:43;99855.84;;;11.26;100.00
42633;BME280;28261;53.304;-6.284;2023-11-18T02:12:57;99863.53;;;11.29;100.00
42633;BME280;28261;53.304;-6.284;2023-11-18T02:15:07;99865.09;;;11.31;100.00
42633;BME280;28261;53.304;-6.284;2023-11-18T02:17:18;99845.41;;;11.34;100.00
42633;BME280;28261;53.304;-6.284;2023-11-18T02:19:27;99842.50;;;11.37;100.00
42633;BME280;28261;53.304;-6.284;2023-11-18T02:21:33;99851.19;;;11.39;100.00
42633;BME280;28261;53.304;-6.284;2023-11-18T02:23:37;99843.91;;;11.41;100.00
42633;BME280;28261;53.304;-6.284;2023-11-18T02:25:45;99844.50;;;11.45;100.00
42633;BME280;28261;53.304;-6.284;2023-11-18T02:27:50;99843.41;;;11.47;100.00
42633;BME280;28261;53.304;-6.284;2023-11-18T02:29:54;99842.31;;;11.50;100.00
42633;BME280;28261;53.304;-6.284;2023-11-18T02:32:09;99843.00;;;11.52;100.00
42633;BME280;28261;53.304;-6.284;2023-11-18T02:34:17;99836.59;;;11.55;100.00
42633;BME280;28261;53.304;-6.284;2023-11-18T02:36:31;99826.84;;;11.55;100.00
42633;BME280;28261;53.304;-6.284;2023-11-18T02:38:43;99834.53;;;11.58;100.00
42633;BME280;28261;53.304;-6.284;2023-11-18T02:40:52;99823.09;;;11.58;100.00
42633;BME280;28261;53.304;-6.284;2023-11-18T02:43:00;99826.16;;;11.63;100.00
42633;BME280;28261;53.304;-6.284;2023-11-18T02:45:09;99831.22;;;11.66;100.00
42633;BME280;28261;53.304;-6.284;2023-11-18T02:47:14;99835.53;;;11.67;100.00
42633;BME280;28261;53.304;-6.284;2023-11-18T02:49:19;99834.59;;;11.68;100.00
42633;BME280;28261;53.304;-6.284;2023-11-18T02:51:24;99821.16;;;11.69;100.00
42633;BME280;28261;53.304;-6.284;2023-11-18T02:53:28;99814.06;;;11.70;100.00
42633;BME280;28261;53.304;-6.284;2023-11-18T02:55:32;99820.06;;;11.72;100.00
42633;BME280;28261;53.304;-6.284;2023-11-18T02:57:38;99818.13;;;11.74;100.00
42633;BME280;28261;53.304;-6.284;2023-11-18T02:59:42;99805.56;;;11.76;100.00
42633;BME280;28261;53.304;-6.284;2023-11-18T03:01:53;99800.25;;;11.76;100.00
42633;BME280;28261;53.304;-6.284;2023-11-18T03:03:58;99790.59;;;11.75;100.00
42633;BME280;28261;53.304;-6.284;2023-11-18T03:06:02;99786.28;;;11.74;100.00
42633;BME280;28261;53.304;-6.284;2023-11-18T03:08:08;99780.97;;;11.74;100.00
42633;BME280;28261;53.304;-6.284;2023-11-18T03:10:12;99788.94;;;11.74;100.00
42633;BME280;28261;53.304;-6.284;2023-11-18T03:12:23;99790.72;;;11.74;100.00
42633;BME280;28261;53.304;-6.284;2023-11-18T03:14:31;99798.56;;;11.75;100.00
42633;BME280;28261;53.304;-6.284;2023-11-18T03:16:37;99799.28;;;11.77;100.00
42633;BME280;28261;53.304;-6.284;2023-11-18T03:18:42;99800.97;;;11.78;100.00
42633;BME280;28261;53.304;-6.284;2023-11-18T03:20:46;99806.28;;;11.78;100.00
42633;BME280;28261;53.304;-6.284;2023-11-18T03:22:51;99793.00;;;11.78;100.00
42633;BME280;28261;53.304;-6.284;2023-11-18T03:24:55;99788.66;;;11.77;100.00
42633;BME280;28261;53.304;-6.284;2023-11-18T03:26:59;99789.63;;;11.76;100.00
42633;BME280;28261;53.304;-6.284;2023-11-18T03:29:03;99782.63;;;11.75;100.00
42633;BME280;28261;53.304;-6.284;2023-11-18T03:31:08;99788.78;;;11.76;100.00
42633;BME280;28261;53.304;-6.284;2023-11-18T03:33:13;99786.28;;;11.74;100.00
42633;BME280;28261;53.304;-6.284;2023-11-18T03:35:17;99789.03;;;11.73;100.00
42633;BME280;28261;53.304;-6.284;2023-11-18T03:37:22;99785.56;;;11.72;100.00
42633;BME280;28261;53.304;-6.284;2023-11-18T03:39:26;99787.50;;;11.70;100.00
42633;BME280;28261;53.304;-6.284;2023-11-18T03:41:30;99785.97;;;11.67;100.00
42633;BME280;28261;53.304;-6.284;2023-11-18T03:43:34;99778.00;;;11.67;100.00
42633;BME280;28261;53.304;-6.284;2023-11-18T03:45:38;99784.13;;;11.68;100.00
42633;BME280;28261;53.304;-6.284;2023-11-18T03:47:44;99788.47;;;11.69;100.00
42633;BME280;28261;53.304;-6.284;2023-11-18T03:49:50;99774.25;;;11.70;100.00
42633;BME280;28261;53.304;-6.284;2023-11-18T03:51:57;99765.41;;;11.69;100.00
42633;BME280;28261;53.304;-6.284;2023-11-18T03:54:01;99777.72;;;11.71;100.00
42633;BME280;28261;53.304;-6.284;2023-11-18T03:56:06;99774.09;;;11.72;100.00
42633;BME280;28261;53.304;-6.284;2023-11-18T03:58:10;99770.44;;;11.73;100.00
42633;BME280;28261;53.304;-6.284;2023-11-18T04:00:16;99765.03;;;11.74;100.00
42633;BME280;28261;53.304;-6.284;2023-11-18T04:02:20;99761.66;;;11.72;100.00
42633;BME280;28261;53.304;-6.284;2023-11-18T04:04:25;99761.66;;;11.72;100.00
42633;BME280;28261;53.304;-6.284;2023-11-18T04:06:29;99759.13;;;11.71;100.00
42633;BME280;28261;53.304;-6.284;2023-11-18T04:08:34;99769.75;;;11.71;100.00
42633;BME280;28261;53.304;-6.284;2023-11-18T04:10:37;99770.72;;;11.69;100.00
42633;BME280;28261;53.304;-6.284;2023-11-18T04:12:41;99771.69;;;11.68;100.00
42633;BME280;28261;53.304;-6.284;2023-11-18T04:14:49;99761.06;;;11.68;100.00
42633;BME280;28261;53.304;-6.284;2023-11-18T04:16:53;99770.88;;;11.68;100.00
42633;BME280;28261;53.304;-6.284;2023-11-18T04:18:59;99757.59;;;11.68;100.00
42633;BME280;28261;53.304;-6.284;2023-11-18T04:21:04;99770.03;;;11.67;100.00
42633;BME280;28261;53.304;-6.284;2023-11-18T04:23:08;99775.47;;;11.66;100.00
42633;BME280;28261;53.304;-6.284;2023-11-18T04:25:14;99778.13;;;11.66;100.00
42633;BME280;28261;53.304;-6.284;2023-11-18T04:27:17;99783.44;;;11.66;100.00
42633;BME280;28261;53.304;-6.284;2023-11-18T04:29:21;99777.13;;;11.67;100.00
42633;BME280;28261;53.304;-6.284;2023-11-18T04:31:25;99773.53;;;11.68;100.00
42633;BME280;28261;53.304;-6.284;2023-11-18T04:33:29;99779.56;;;11.70;100.00
42633;BME280;28261;53.304;-6.284;2023-11-18T04:35:33;99781.22;;;11.71;100.00
42633;BME280;28261;53.304;-6.284;2023-11-18T04:37:39;99781.06;;;11.73;100.00
42633;BME280;28261;53.304;-6.284;2023-11-18T04:39:46;99774.66;;;11.75;100.00
42633;BME280;28261;53.304;-6.284;2023-11-18T04:41:49;99772.00;;;11.75;100.00
42633;BME280;28261;53.304;-6.284;2023-11-18T04:43:53;99778.03;;;11.77;100.00
42633;BME280;28261;53.304;-6.284;2023-11-18T04:45:56;99769.09;;;11.78;100.00
42633;BME280;28261;53.304;-6.284;2023-11-18T04:47:59;99759.31;;;11.79;100.00
42633;BME280;28261;53.304;-6.284;2023-11-18T04:50:04;99773.41;;;11.79;100.00
42633;BME280;28261;53.304;-6.284;2023-11-18T04:52:10;99759.16;;;11.80;100.00
42633;BME280;28261;53.304;-6.284;2023-11-18T04:54:15;99769.66;;;11.82;100.00
42633;BME280;28261;53.304;-6.284;2023-11-18T04:56:19;99759.88;;;11.82;100.00
42633;BME280;28261;53.304;-6.284;2023-11-18T04:58:24;99751.78;;;11.84;100.00
42633;BME280;28261;53.304;-6.284;2023-11-18T05:00:27;99749.69;;;11.88;100.00
42633;BME280;28261;53.304;-6.284;2023-11-18T05:02:31;99731.81;;;11.90;100.00
42633;BME280;28261;53.304;-6.284;2023-11-18T05:04:36;99721.88;;;11.92;100.00
42633;BME280;28261;53.304;-6.284;2023-11-18T05:06:41;99727.19;;;11.92;100.00
42633;BME280;28261;53.304;-6.284;2023-11-18T05:08:45;99728.19;;;11.91;100.00
42633;BME280;28261;53.304;-6.284;2023-11-18T05:10:51;99730.84;;;11.91;100.00
42633;BME280;28261;53.304;-6.284;2023-11-18T05:12:54;99727.31;;;11.90;100.00
42633;BME280;28261;53.304;-6.284;2023-11-18T05:14:59;99740.47;;;11.92;100.00
42633;BME280;28261;53.304;-6.284;2023-11-18T05:17:02;99737.94;;;11.90;100.00
42633;BME280;28261;53.304;-6.284;2023-11-18T05:19:07;99732.63;;;11.90;100.00
42633;BME280;28261;53.304;-6.284;2023-11-18T05:21:11;99741.47;;;11.91;100.00
42633;BME280;28261;53.304;-6.284;2023-11-18T05:23:14;99736.16;;;11.91;100.00
42633;BME280;28261;53.304;-6.284;2023-11-18T05:25:19;99728.88;;;11.93;100.00
42633;BME280;28261;53.304;-6.284;2023-11-18T05:27:24;99726.22;;;11.93;100.00
42633;BME280;28261;53.304;-6.284;2023-11-18T05:29:28;99719.22;;;11.92;100.00
42633;BME280;28261;53.304;-6.284;2023-11-18T05:31:32;99712.25;;;11.91;100.00
42633;BME280;28261;53.304;-6.284;2023-11-18T05:33:36;99712.25;;;11.91;100.00
42633;BME280;28261;53.304;-6.284;2023-11-18T05:35:40;99713.22;;;11.90;100.00
42633;BME280;28261;53.304;-6.284;2023-11-18T05:37:51;99711.53;;;11.89;100.00
42633;BME280;28261;53.304;-6.284;2023-11-18T05:39:56;99712.50;;;11.88;100.00
42633;BME280;28261;53.304;-6.284;2023-11-18T05:42:08;99708.28;;;11.85;100.00
42633;BME280;28261;53.304;-6.284;2023-11-18T05:44:14;99699.66;;;11.83;100.00
42633;BME280;28261;53.304;-6.284;2023-11-18T05:46:21;99707.75;;;11.81;100.00
42633;BME280;28261;53.304;-6.284;2023-11-18T05:48:27;99696.28;;;11.81;100.00
42633;BME280;28261;53.304;-6.284;2023-11-18T05:50:30;99690.28;;;11.79;100.00
42633;BME280;28261;53.304;-6.284;2023-11-18T05:52:34;99678.94;;;11.77;100.00
42633;BME280;28261;53.304;-6.284;2023-11-18T05:54:38;99680.06;;;11.74;100.00
42633;BME280;28261;53.304;-6.284;2023-11-18T05:56:42;99679.34;;;11.72;100.00
42633;BME280;28261;53.304;-6.284;2023-11-18T05:58:45;99680.06;;;11.74;100.00
42633;BME280;28261;53.304;-6.284;2023-11-18T06:00:50;99675.59;;;11.75;100.00
42633;BME280;28261;53.304;-6.284;2023-11-18T06:02:53;99669.44;;;11.74;100.00
42633;BME280;28261;53.304;-6.284;2023-11-18T06:04:56;99664.38;;;11.71;100.00
42633;BME280;28261;53.304;-6.284;2023-11-18T06:07:00;99666.91;;;11.73;100.00
42633;BME280;28261;53.304;-6.284;2023-11-18T06:09:05;99683.69;;;11.73;100.00
42633;BME280;28261;53.304;-6.284;2023-11-18T06:11:11;99680.31;;;11.71;100.00
42633;BME280;28261;53.304;-6.284;2023-11-18T06:13:18;99683.84;;;11.72;100.00
42633;BME280;28261;53.304;-6.284;2023-11-18T06:15:22;99689.28;;;11.70;100.00
42633;BME280;28261;53.304;-6.284;2023-11-18T06:17:27;99686.50;;;11.72;100.00
42633;BME280;28261;53.304;-6.284;2023-11-18T06:19:31;99686.50;;;11.72;100.00
42633;BME280;28261;53.304;-6.284;2023-11-18T06:21:35;99678.53;;;11.72;100.00
42633;BME280;28261;53.304;-6.284;2023-11-18T06:23:38;99673.06;;;11.73;100.00
42633;BME280;28261;53.304;-6.284;2023-11-18T06:25:42;99661.59;;;11.73;100.00
42633;BME280;28261;53.304;-6.284;2023-11-18T06:27:45;99674.75;;;11.74;100.00
42633;BME280;28261;53.304;-6.284;2023-11-18T06:29:50;99664.97;;;11.75;100.00
42633;BME280;28261;53.304;-6.284;2023-11-18T06:31:57;99674.63;;;11.76;100.00
42633;BME280;28261;53.304;-6.284;2023-11-18T06:34:02;99675.59;;;11.75;100.00
42633;BME280;28261;53.304;-6.284;2023-11-18T06:36:07;99679.06;;;11.75;100.00
42633;BME280;28261;53.304;-6.284;2023-11-18T06:38:10;99676.41;;;11.75;100.00
42633;BME280;28261;53.304;-6.284;2023-11-18T06:40:15;99676.41;;;11.75;100.00
42633;BME280;28261;53.304;-6.284;2023-11-18T06:42:24;99676.41;;;11.75;100.00
42633;BME280;28261;53.304;-6.284;2023-11-18T06:44:26;99669.16;;;11.77;100.00
42633;BME280;28261;53.304;-6.284;2023-11-18T06:46:32;99667.47;;;11.76;100.00
42633;BME280;28261;53.304;-6.284;2023-11-18T06:48:37;99658.56;;;11.77;100.00
42633;BME280;28261;53.304;-6.284;2023-11-18T06:50:43;99669.03;;;11.79;100.00
42633;BME280;28261;53.304;-6.284;2023-11-18T06:52:47;99673.50;;;11.78;100.00
42633;BME280;28261;53.304;-6.284;2023-11-18T06:54:50;99670.84;;;11.78;100.00
42633;BME280;28261;53.304;-6.284;2023-11-18T06:56:56;99674.06;;;11.82;100.00
42633;BME280;28261;53.304;-6.284;2023-11-18T06:59:00;99676.31;;;11.87;100.00
42633;BME280;28261;53.304;-6.284;2023-11-18T07:01:04;99678.69;;;11.90;100.00
42633;BME280;28261;53.304;-6.284;2023-11-18T07:03:08;99688.34;;;11.91;100.00
42633;BME280;28261;53.304;-6.284;2023-11-18T07:05:11;99686.28;;;11.94;100.00
42633;BME280;28261;53.304;-6.284;2023-11-18T07:07:18;99692.16;;;11.98;100.00
42633;BME280;28261;53.304;-6.284;2023-11-18T07:09:22;99684.88;;;12.00;100.00
42633;BME280;28261;53.304;-6.284;2023-11-18T07:11:28;99687.28;;;12.03;100.00
42633;BME280;28261;53.304;-6.284;2023-11-18T07:13:30;99674.00;;;12.03;100.00
42633;BME280;28261;53.304;-6.284;2023-11-18T07:15:36;99668.81;;;12.01;100.00
42633;BME280;28261;53.304;-6.284;2023-11-18T07:17:39;99660.00;;;12.01;100.00
42633;BME280;28261;53.304;-6.284;2023-11-18T07:19:43;99657.63;;;11.98;100.00
42633;BME280;28261;53.304;-6.284;2023-11-18T07:21:47;99668.25;;;11.98;100.00
42633;BME280;28261;53.304;-6.284;2023-11-18T07:23:53;99667.78;;;11.93;100.00
42633;BME280;28261;53.304;-6.284;2023-11-18T07:25:56;99653.81;;;11.91;100.00
42633;BME280;28261;53.304;-6.284;2023-11-18T07:27:59;99668.22;;;11.88;100.00
42633;BME280;28261;53.304;-6.284;2023-11-18T07:30:04;99672.13;;;11.84;100.00
42633;BME280;28261;53.304;-6.284;2023-11-18T07:32:12;99672.50;;;11.79;100.00
42633;BME280;28261;53.304;-6.284;2023-11-18T07:34:16;99679.06;;;11.75;100.00
42633;BME280;28261;53.304;-6.284;2023-11-18T07:36:19;99669.44;;;11.74;100.00
42633;BME280;28261;53.304;-6.284;2023-11-18T07:38:23;99673.91;;;11.74;100.00
42633;BME280;28261;53.304;-6.284;2023-11-18T07:40:30;99665.09;;;11.73;100.00
42633;BME280;28261;53.304;-6.284;2023-11-18T07:42:36;99661.59;;;11.73;100.00
42633;BME280;28261;53.304;-6.284;2023-11-18T07:44:39;99666.91;;;11.73;100.00
42633;BME280;28261;53.304;-6.284;2023-11-18T07:46:43;99662.44;;;11.73;100.00
42633;BME280;28261;53.304;-6.284;2023-11-18T07:48:47;99662.31;;;11.75;100.00
42633;BME280;28261;53.304;-6.284;2023-11-18T07:50:51;99669.16;;;11.77;100.00
42633;BME280;28261;53.304;-6.284;2023-11-18T07:52:55;99653.25;;;11.77;100.00
42633;BME280;28261;53.304;-6.284;2023-11-18T07:54:59;99657.56;;;11.78;100.00
42633;BME280;28261;53.304;-6.284;2023-11-18T07:57:04;99660.91;;;11.80;100.00
42633;BME280;28261;53.304;-6.284;2023-11-18T07:59:12;99662.75;;;11.80;100.00
42633;BME280;28261;53.304;-6.284;2023-11-18T08:01:18;99664.28;;;11.82;100.00
42633;BME280;28261;53.304;-6.284;2023-11-18T08:03:24;99666.66;;;11.85;100.00
42633;BME280;28261;53.304;-6.284;2023-11-18T08:05:28;99649.03;;;11.84;100.00
42633;BME280;28261;53.304;-6.284;2023-11-18T08:07:34;99649.03;;;11.84;100.00
42633;BME280;28261;53.304;-6.284;2023-11-18T08:09:38;99660.50;;;11.85;100.00
42633;BME280;28261;53.304;-6.284;2023-11-18T08:11:41;99656.88;;;11.86;100.00
42633;BME280;28261;53.304;-6.284;2023-11-18T08:13:46;99656.03;;;11.85;100.00
42633;BME280;28261;53.304;-6.284;2023-11-18T08:15:50;99658.69;;;11.85;100.00
42633;BME280;28261;53.304;-6.284;2023-11-18T08:17:52;99671.25;;;11.83;100.00
42633;BME280;28261;53.304;-6.284;2023-11-18T08:19:57;99667.78;;;11.83;100.00
42633;BME280;28261;53.304;-6.284;2023-11-18T08:22:02;99664.28;;;11.82;100.00
42633;BME280;28261;53.304;-6.284;2023-11-18T08:24:07;99666.94;;;11.82;100.00
42633;BME280;28261;53.304;-6.284;2023-11-18T08:26:11;99661.63;;;11.82;100.00
42633;BME280;28261;53.304;-6.284;2023-11-18T08:28:14;99655.31;;;11.83;100.00
42633;BME280;28261;53.304;-6.284;2023-11-18T08:30:20;99643.75;;;11.84;100.00
42633;BME280;28261;53.304;-6.284;2023-11-18T08:32:23;99647.94;;;11.87;100.00
42633;BME280;28261;53.304;-6.284;2023-11-18T08:34:27;99641.50;;;11.90;100.00
42633;BME280;28261;53.304;-6.284;2023-11-18T08:36:31;99644.03;;;11.91;100.00
42633;BME280;28261;53.304;-6.284;2023-11-18T08:38:36;99645.72;;;11.92;100.00
42633;BME280;28261;53.304;-6.284;2023-11-18T08:40:40;99653.53;;;11.94;100.00
42633;BME280;28261;53.304;-6.284;2023-11-18T08:42:46;99663.75;;;11.98;100.00
42633;BME280;28261;53.304;-6.284;2023-11-18T08:44:52;99663.63;;;12.00;100.00
42633;BME280;28261;53.304;-6.284;2023-11-18T08:46:59;99659.03;;;12.02;100.00
42633;BME280;28261;53.304;-6.284;2023-11-18T08:49:01;99651.75;;;12.04;100.00
42633;BME280;28261;53.304;-6.284;2023-11-18T08:51:13;99653.28;;;12.07;100.00
42633;BME280;28261;53.304;-6.284;2023-11-18T08:53:18;99648.84;;;12.07;100.00
42633;BME280;28261;53.304;-6.284;2023-11-18T08:55:29;99650.50;;;12.08;100.00
42633;BME280;28261;53.304;-6.284;2023-11-18T08:57:47;99647.72;;;12.10;100.00
42633;BME280;28261;53.304;-6.284;2023-11-18T09:00:01;99638.75;;;12.11;100.00
42633;BME280;28261;53.304;-6.284;2023-11-18T09:02:12;99641.25;;;12.12;100.00
42633;BME280;28261;53.304;-6.284;2023-11-18T09:04:17;99641.00;;;12.15;100.00
42633;BME280;28261;53.304;-6.284;2023-11-18T09:06:23;99645.22;;;12.18;100.00
42633;BME280;28261;53.304;-6.284;2023-11-18T09:08:32;99646.75;;;12.21;100.00
42633;BME280;28261;53.304;-6.284;2023-11-18T09:10:37;99643.81;;;12.24;100.00
42633;BME280;28261;53.304;-6.284;2023-11-18T09:12:40;99641.00;;;12.25;100.00
42633;BME280;28261;53.304;-6.284;2023-11-18T09:14:47;99645.72;;;12.31;100.00
42633;BME280;28261;53.304;-6.284;2023-11-18T09:16:54;99645.47;;;12.34;100.00
42633;BME280;28261;53.304;-6.284;2023-11-18T09:19:03;99638.19;;;12.36;100.00
42633;BME280;28261;53.304;-6.284;2023-11-18T09:21:08;99622.81;;;12.40;100.00
42633;BME280;28261;53.304;-6.284;2023-11-18T09:23:18;99618.16;;;12.42;100.00
42633;BME280;28261;53.304;-6.284;2023-11-18T09:25:21;99607.28;;;12.45;100.00
42633;BME280;28261;53.304;-6.284;2023-11-18T09:27:25;99602.63;;;12.47;100.00
42633;BME280;28261;53.304;-6.284;2023-11-18T09:29:31;99601.66;;;12.48;100.00
42633;BME280;28261;53.304;-6.284;2023-11-18T09:31:36;99616.66;;;12.49;100.00
42633;BME280;28261;53.304;-6.284;2023-11-18T09:33:41;99619.16;;;12.51;100.00
42633;BME280;28261;53.304;-6.284;2023-11-18T09:35:51;99610.19;;;12.52;100.00
42633;BME280;28261;53.304;-6.284;2023-11-18T09:37:54;99611.84;;;12.53;100.00
42633;BME280;28261;53.304;-6.284;2023-11-18T09:39:58;99603.75;;;12.55;100.00
42633;BME280;28261;53.304;-6.284;2023-11-18T09:42:13;99616.06;;;12.56;100.00
42633;BME280;28261;53.304;-6.284;2023-11-18T09:44:21;99613.25;;;12.57;100.00
42633;BME280;28261;53.304;-6.284;2023-11-18T09:46:26;99613.09;;;12.59;100.00
42633;BME280;28261;53.304;-6.284;2023-11-18T09:48:35;99602.34;;;12.60;100.00
42633;BME280;28261;53.304;-6.284;2023-11-18T09:50:43;99608.19;;;12.64;100.00
42633;BME280;28261;53.304;-6.284;2023-11-18T09:52:54;99611.84;;;12.63;100.00
42633;BME280;28261;53.304;-6.284;2023-11-18T09:55:02;99604.72;;;12.63;100.00
42633;BME280;28261;53.304;-6.284;2023-11-18T09:57:09;99615.19;;;12.65;100.00
42633;BME280;28261;53.304;-6.284;2023-11-18T09:59:22;99618.69;;;12.65;100.00
42633;BME280;28261;53.304;-6.284;2023-11-18T10:01:27;99613.22;;;12.67;100.00
42633;BME280;28261;53.304;-6.284;2023-11-18T10:03:35;99606.94;;;12.68;100.00
42633;BME280;28261;53.304;-6.284;2023-11-18T10:05:40;99601.31;;;12.71;100.00
42633;BME280;28261;53.304;-6.284;2023-11-18T10:07:45;99605.66;;;12.72;100.00
42633;BME280;28261;53.304;-6.284;2023-11-18T10:09:51;99620.50;;;12.75;100.00
42633;BME280;28261;53.304;-6.284;2023-11-18T10:11:59;99620.19;;;12.78;100.00
42633;BME280;28261;53.304;-6.284;2023-11-18T10:14:08;99620.19;;;12.78;100.00
42633;BME280;28261;53.304;-6.284;2023-11-18T10:16:13;99623.56;;;12.80;100.00
42633;BME280;28261;53.304;-6.284;2023-11-18T10:18:16;99622.28;;;12.84;100.00
42633;BME280;28261;53.304;-6.284;2023-11-18T10:20:43;99620.47;;;12.84;100.00
42633;BME280;28261;53.304;-6.284;2023-11-18T10:22:48;99612.31;;;12.86;100.00
42633;BME280;28261;53.304;-6.284;2023-11-18T10:24:53;99614.88;;;12.88;100.00
42633;BME280;28261;53.304;-6.284;2023-11-18T10:26:58;99607.56;;;12.90;100.00
42633;BME280;28261;53.304;-6.284;2023-11-18T10:29:03;99610.63;;;12.95;100.00
42633;BME280;28261;53.304;-6.284;2023-11-18T10:31:18;99619.28;;;12.97;100.00
42633;BME280;28261;53.304;-6.284;2023-11-18T10:33:22;99621.69;;;13.00;100.00
42633;BME280;28261;53.304;-6.284;2023-11-18T10:35:28;99623.19;;;13.02;100.00
42633;BME280;28261;53.304;-6.284;2023-11-18T10:37:32;99607.78;;;13.06;100.00
42633;BME280;28261;53.304;-6.284;2023-11-18T10:39:46;99627.13;;;13.08;100.00
42633;BME280;28261;53.304;-6.284;2023-11-18T10:41:59;99625.13;;;13.10;100.00
42633;BME280;28261;53.304;-6.284;2023-11-18T10:44:07;99619.50;;;13.13;100.00
42633;BME280;28261;53.304;-6.284;2023-11-18T10:46:17;99616.56;;;13.16;100.00
42633;BME280;28261;53.304;-6.284;2023-11-18T10:48:23;99620.63;;;13.20;100.00